Time;durP1;ratioP1;P1;durP2;ratioP2;P2;SDS_P1;SDS_P2;PMS_P1;PMS_P2;Temp;Humidity;BMP_temperature;BMP_pressure;BME280_temperature;BME280_humidity;BME280_pressure;Samples;Min_cycle;Max_cycle;Signal;HPM_P1;HPM_P2
2023/05/18 00:02:07;;;;;;;6.78;2.20;;;8.10;99.90;;;;;;6273375;22;20042;-69
2023/05/18 00:04:33;;;;;;;5.15;2.38;;;8.00;99.90;;;;;;6273331;22;20016;-68
2023/05/18 00:07:03;;;;;;;4.55;2.20;;;8.00;99.90;;;;;;6272844;22;20015;-68
2023/05/18 00:09:36;;;;;;;4.60;1.90;;;8.00;99.90;;;;;;6245739;22;20020;-69
2023/05/18 00:12:03;;;;;;;4.97;2.15;;;7.90;99.90;;;;;;6273131;22;20077;-68
2023/05/18 00:14:30;;;;;;;5.35;2.30;;;7.90;99.90;;;;;;6271160;22;20015;-68
2023/05/18 00:16:56;;;;;;;3.75;2.92;;;7.90;99.90;;;;;;6272866;22;20016;-68
2023/05/18 00:19:23;;;;;;;7.53;2.25;;;7.90;99.90;;;;;;6245609;22;20558;-69
2023/05/18 00:21:50;;;;;;;4.13;2.63;;;7.80;99.90;;;;;;6273203;22;20019;-68
2023/05/18 00:24:16;;;;;;;4.82;1.73;;;7.90;99.90;;;;;;6272859;22;20050;-69
2023/05/18 00:26:46;;;;;;;5.63;2.30;;;7.80;99.90;;;;;;6273071;22;20035;-68
2023/05/18 00:29:12;;;;;;;5.82;2.28;;;7.80;99.90;;;;;;6273322;22;20020;-68
2023/05/18 00:31:38;;;;;;;6.40;2.20;;;7.80;99.90;;;;;;6273230;22;20026;-69
2023/05/18 00:34:08;;;;;;;5.43;1.88;;;7.70;99.90;;;;;;6245312;22;20027;-69
2023/05/18 00:36:35;;;;;;;3.17;2.22;;;7.70;99.90;;;;;;6272751;22;20019;-69
2023/05/18 00:39:02;;;;;;;8.35;2.47;;;7.70;99.90;;;;;;6272525;22;20050;-68
2023/05/18 00:41:28;;;;;;;4.00;2.08;;;7.70;99.90;;;;;;6245270;22;20038;-69
2023/05/18 00:43:54;;;;;;;3.55;1.80;;;7.60;99.90;;;;;;6272921;22;20320;-68
2023/05/18 00:46:21;;;;;;;5.25;2.05;;;7.70;99.90;;;;;;6272868;22;20011;-68
2023/05/18 00:48:49;;;;;;;3.85;2.22;;;7.60;99.90;;;;;;6272793;22;20031;-68
2023/05/18 00:51:15;;;;;;;4.53;2.10;;;7.50;99.90;;;;;;6244783;22;20024;-68
2023/05/18 00:53:42;;;;;;;3.90;2.50;;;7.50;99.90;;;;;;6244722;22;20055;-68
2023/05/18 00:56:10;;;;;;;2.72;1.70;;;7.50;99.90;;;;;;6272462;22;20024;-68
2023/05/18 00:58:37;;;;;;;7.45;2.45;;;7.40;99.90;;;;;;6272200;22;20022;-69
2023/05/18 01:01:04;;;;;;;5.70;3.00;;;7.50;99.90;;;;;;6272141;22;20122;-68
2023/05/18 01:03:32;;;;;;;6.65;2.17;;;7.40;99.90;;;;;;6272465;22;20022;-69
2023/05/18 01:05:58;;;;;;;3.63;2.72;;;7.40;99.90;;;;;;6272506;22;20035;-68
2023/05/18 01:08:25;;;;;;;6.43;2.67;;;7.40;99.90;;;;;;6272149;22;20012;-68
2023/05/18 01:10:55;;;;;;;3.08;2.50;;;7.40;99.90;;;;;;6272679;22;20449;-68
2023/05/18 01:13:34;;;;;;;3.65;1.95;;;7.40;99.90;;;;;;6245008;22;20084;-68
2023/05/18 01:16:08;;;;;;;4.00;2.63;;;7.30;99.90;;;;;;6272716;22;20255;-68
2023/05/18 01:18:42;;;;;;;3.90;2.10;;;7.30;99.90;;;;;;6272545;22;20415;-68
2023/05/18 01:21:18;;;;;;;7.53;2.60;;;7.20;99.90;;;;;;6272512;22;20024;-67
2023/05/18 01:24:08;;;;;;;3.85;2.20;;;7.20;99.90;;;;;;6272356;22;20019;-68
2023/05/18 01:26:40;;;;;;;3.90;2.97;;;7.20;99.90;;;;;;6272195;22;20068;-68
2023/05/18 01:29:10;;;;;;;5.32;2.10;;;7.20;99.90;;;;;;6244594;22;20274;-68
2023/05/18 01:31:36;;;;;;;5.38;2.30;;;7.20;99.90;;;;;;6272427;22;20119;-68
2023/05/18 01:34:01;;;;;;;3.15;2.25;;;7.20;99.90;;;;;;6244902;22;20382;-69
2023/05/18 01:36:27;;;;;;;4.68;2.13;;;7.10;99.90;;;;;;6244808;22;20023;-69
2023/05/18 01:38:55;;;;;;;11.55;2.70;;;7.10;99.90;;;;;;6272148;22;20398;-68
2023/05/18 01:41:26;;;;;;;5.70;2.50;;;7.10;99.90;;;;;;6271976;22;20483;-68
2023/05/18 01:44:05;;;;;;;11.30;2.85;;;7.10;99.90;;;;;;6272386;22;20093;-68
2023/05/18 01:46:41;;;;;;;7.25;2.47;;;7.00;99.90;;;;;;6272355;22;20023;-68
2023/05/18 01:49:18;;;;;;;5.32;2.55;;;7.00;99.90;;;;;;6272405;22;20368;-68
2023/05/18 01:51:45;;;;;;;4.65;1.85;;;7.00;99.90;;;;;;6271587;22;20023;-69
2023/05/18 01:54:14;;;;;;;4.85;2.75;;;7.00;99.90;;;;;;6272128;22;20407;-68
2023/05/18 01:56:43;;;;;;;3.03;2.67;;;6.90;99.90;;;;;;6272199;22;20054;-69
2023/05/18 01:59:09;;;;;;;3.65;2.35;;;6.90;99.90;;;;;;6272240;22;20086;-68
2023/05/18 02:01:35;;;;;;;3.50;2.00;;;6.90;99.90;;;;;;6271865;22;20019;-68
2023/05/18 02:04:01;;;;;;;6.28;2.58;;;6.90;99.90;;;;;;6272141;22;20095;-68
2023/05/18 02:06:27;;;;;;;5.60;2.58;;;6.90;99.90;;;;;;6244501;22;20103;-68
2023/05/18 02:08:52;;;;;;;5.82;2.15;;;6.90;99.90;;;;;;6272285;22;20030;-68
2023/05/18 02:11:18;;;;;;;4.28;2.20;;;6.80;99.90;;;;;;6271894;22;20435;-68
2023/05/18 02:13:44;;;;;;;7.18;3.30;;;6.80;99.90;;;;;;6244783;22;20023;-68
2023/05/18 02:16:10;;;;;;;8.00;3.00;;;6.80;99.90;;;;;;6244680;22;20532;-68
2023/05/18 02:18:37;;;;;;;5.07;2.53;;;6.90;99.90;;;;;;6271677;22;20019;-68
2023/05/18 02:21:03;;;;;;;5.38;2.45;;;6.90;99.90;;;;;;6218853;22;20019;-68
2023/05/18 02:23:30;;;;;;;3.67;1.85;;;6.90;99.90;;;;;;6271762;22;20023;-68
2023/05/18 02:25:55;;;;;;;8.35;3.45;;;6.90;99.90;;;;;;6271831;22;20135;-68
2023/05/18 02:28:22;;;;;;;6.60;1.90;;;6.90;99.90;;;;;;6272366;22;20505;-68
2023/05/18 02:30:47;;;;;;;8.32;2.65;;;7.00;99.90;;;;;;6272154;22;20031;-66
2023/05/18 02:33:13;;;;;;;8.43;2.30;;;6.90;99.90;;;;;;6272315;22;20012;-68
2023/05/18 02:35:39;;;;;;;4.20;2.70;;;6.90;99.90;;;;;;6271769;22;20007;-68
2023/05/18 02:38:06;;;;;;;9.30;2.30;;;6.90;99.90;;;;;;6244523;22;20435;-69
2023/05/18 02:40:32;;;;;;;6.35;2.10;;;6.90;99.90;;;;;;6271865;22;20343;-68
2023/05/18 02:42:57;;;;;;;6.47;2.00;;;7.00;99.90;;;;;;6244446;22;20363;-68
2023/05/18 02:45:23;;;;;;;13.05;2.60;;;6.90;99.90;;;;;;6271602;22;20098;-68
2023/05/18 02:47:49;;;;;;;7.43;2.60;;;6.90;99.90;;;;;;6271771;22;20022;-69
2023/05/18 02:50:15;;;;;;;2.92;2.10;;;6.90;99.90;;;;;;6243573;22;20047;-67
2023/05/18 02:52:41;;;;;;;9.02;2.80;;;6.90;99.90;;;;;;6244351;22;20673;-69
2023/05/18 02:55:07;;;;;;;3.78;2.38;;;6.90;99.90;;;;;;6271857;22;20035;-69
2023/05/18 02:57:32;;;;;;;4.93;2.50;;;6.90;99.90;;;;;;6271703;22;20383;-68
2023/05/18 02:59:58;;;;;;;3.15;1.90;;;6.80;99.90;;;;;;6271806;22;20057;-68
2023/05/18 03:02:26;;;;;;;6.35;2.47;;;6.80;99.90;;;;;;6271832;22;20015;-68
2023/05/18 03:04:53;;;;;;;6.20;2.40;;;6.80;99.90;;;;;;6271561;22;20016;-68
2023/05/18 03:07:22;;;;;;;3.42;2.28;;;6.80;99.90;;;;;;6271701;22;20016;-68
2023/05/18 03:09:48;;;;;;;6.15;2.55;;;6.80;99.90;;;;;;6271848;22;20073;-69
2023/05/18 03:12:13;;;;;;;3.78;3.05;;;6.70;99.90;;;;;;6271777;22;20019;-68
2023/05/18 03:14:39;;;;;;;5.78;2.42;;;6.70;99.90;;;;;;6244317;22;20094;-68
2023/05/18 03:17:05;;;;;;;6.30;2.45;;;6.70;99.90;;;;;;6271419;22;20402;-68
2023/05/18 03:19:34;;;;;;;4.13;2.47;;;6.70;99.90;;;;;;6271291;22;20028;-68
2023/05/18 03:21:59;;;;;;;2.65;2.28;;;6.70;99.90;;;;;;6272156;22;20077;-68
2023/05/18 03:24:29;;;;;;;6.10;3.50;;;6.70;99.90;;;;;;6272291;22;20094;-68
2023/05/18 03:26:55;;;;;;;6.45;2.72;;;6.60;99.90;;;;;;6244482;22;20026;-69
2023/05/18 03:29:22;;;;;;;3.63;2.60;;;6.70;99.90;;;;;;6271063;22;20026;-68
2023/05/18 03:31:47;;;;;;;3.65;2.10;;;6.60;99.90;;;;;;6271856;22;20166;-68
2023/05/18 03:34:13;;;;;;;5.22;2.63;;;6.60;99.90;;;;;;6271255;22;20418;-68
2023/05/18 03:36:41;;;;;;;5.47;2.70;;;6.70;99.90;;;;;;6244470;22;20528;-68
2023/05/18 03:39:07;;;;;;;7.20;2.70;;;6.60;99.90;;;;;;6271412;22;20031;-68
2023/05/18 03:41:33;;;;;;;5.63;2.70;;;6.60;99.90;;;;;;6271544;22;20051;-68
2023/05/18 03:43:59;;;;;;;4.43;2.30;;;6.60;99.90;;;;;;6244204;22;20015;-68
2023/05/18 03:46:25;;;;;;;3.28;2.40;;;6.60;99.90;;;;;;6271320;22;20066;-68
2023/05/18 03:48:53;;;;;;;5.60;3.30;;;6.60;99.90;;;;;;6271414;22;20015;-68
2023/05/18 03:51:19;;;;;;;10.35;2.95;;;6.60;99.90;;;;;;6271435;22;20016;-67
2023/05/18 03:53:45;;;;;;;3.97;2.22;;;6.60;99.90;;;;;;6271738;22;20022;-68
2023/05/18 03:56:12;;;;;;;6.82;2.90;;;6.60;99.90;;;;;;6271806;22;20022;-68
2023/05/18 03:58:38;;;;;;;7.97;2.65;;;6.60;99.90;;;;;;6271524;22;20137;-68
2023/05/18 04:01:04;;;;;;;3.67;2.42;;;6.60;99.90;;;;;;6272893;22;20016;-67
2023/05/18 04:03:30;;;;;;;4.43;3.30;;;6.60;99.90;;;;;;6273133;22;20331;-68
2023/05/18 04:05:56;;;;;;;4.35;3.00;;;6.60;99.90;;;;;;6246223;22;20114;-68
2023/05/18 04:08:24;;;;;;;3.92;2.13;;;6.60;99.90;;;;;;6273795;22;20022;-68
2023/05/18 04:10:50;;;;;;;4.38;3.03;;;6.60;99.90;;;;;;6273804;22;20015;-68
2023/05/18 04:13:16;;;;;;;4.22;2.20;;;6.70;99.90;;;;;;6273244;22;20023;-68
2023/05/18 04:15:42;;;;;;;5.78;2.55;;;6.60;99.90;;;;;;6273362;22;20026;-67
2023/05/18 04:18:09;;;;;;;6.72;2.53;;;6.70;99.90;;;;;;6245655;22;20087;-68
2023/05/18 04:20:36;;;;;;;8.60;2.70;;;6.70;99.90;;;;;;6245852;22;20103;-68
2023/05/18 04:23:04;;;;;;;5.93;2.63;;;6.60;99.90;;;;;;6273093;22;20411;-68
2023/05/18 04:25:30;;;;;;;6.10;2.92;;;6.80;99.90;;;;;;6245712;22;20015;-68
2023/05/18 04:27:56;;;;;;;9.25;2.97;;;6.80;99.90;;;;;;6273357;22;20404;-68
2023/05/18 04:30:22;;;;;;;4.78;3.10;;;6.70;99.90;;;;;;6245362;22;20023;-68
2023/05/18 04:32:48;;;;;;;9.52;3.60;;;6.90;99.90;;;;;;6272546;22;20027;-68
2023/05/18 04:35:15;;;;;;;5.80;2.80;;;6.90;99.90;;;;;;6245521;22;20051;-69
2023/05/18 04:37:41;;;;;;;5.53;2.90;;;7.00;99.90;;;;;;6272707;22;20024;-68
2023/05/18 04:40:15;;;;;;;8.70;3.05;;;7.00;99.90;;;;;;6245857;22;20031;-68
2023/05/18 04:42:46;;;;;;;5.65;3.20;;;7.00;99.90;;;;;;6272823;22;20019;-68
2023/05/18 04:45:15;;;;;;;5.40;3.00;;;7.10;99.90;;;;;;6272535;22;20179;-68
2023/05/18 04:47:41;;;;;;;5.90;2.80;;;7.20;99.90;;;;;;6272777;22;20023;-68
2023/05/18 04:50:07;;;;;;;7.28;2.60;;;7.30;99.90;;;;;;6270791;22;20433;-68
2023/05/18 04:52:35;;;;;;;3.38;2.65;;;7.30;99.90;;;;;;6271527;22;20459;-68
2023/05/18 04:55:01;;;;;;;4.38;2.65;;;7.30;99.90;;;;;;6272759;22;20441;-68
2023/05/18 04:57:27;;;;;;;6.72;2.95;;;7.40;99.90;;;;;;6272356;22;20106;-68
2023/05/18 04:59:53;;;;;;;6.82;3.00;;;7.40;99.90;;;;;;6272331;22;20024;-68
2023/05/18 05:02:19;;;;;;;11.20;3.00;;;7.50;99.90;;;;;;6245268;22;20458;-68
2023/05/18 05:04:45;;;;;;;9.38;3.45;;;7.60;99.90;;;;;;6272759;22;20039;-68
2023/05/18 05:07:11;;;;;;;6.00;2.70;;;7.70;99.90;;;;;;6245175;22;20031;-68
2023/05/18 05:09:36;;;;;;;6.05;2.13;;;7.70;99.90;;;;;;6272659;22;20027;-68
2023/05/18 05:12:02;;;;;;;7.65;2.38;;;7.80;99.90;;;;;;6272660;22;20458;-69
2023/05/18 05:14:28;;;;;;;3.88;2.00;;;7.90;99.90;;;;;;6272355;22;20054;-68
2023/05/18 05:16:54;;;;;;;5.38;2.22;;;8.10;99.90;;;;;;6272321;22;20105;-68
2023/05/18 05:19:19;;;;;;;10.25;2.85;;;8.30;99.90;;;;;;6272104;22;20012;-68
2023/05/18 05:21:45;;;;;;;5.60;2.05;;;8.30;99.90;;;;;;6272171;22;20095;-68
2023/05/18 05:24:11;;;;;;;3.00;2.08;;;8.50;99.90;;;;;;6272411;22;20020;-68
2023/05/18 05:26:37;;;;;;;4.10;2.20;;;8.50;99.90;;;;;;6272260;22;20447;-68
2023/05/18 05:29:03;;;;;;;6.10;2.25;;;8.30;99.90;;;;;;6271857;22;20086;-68
2023/05/18 05:31:29;;;;;;;8.95;2.50;;;8.30;99.90;;;;;;6272311;22;20015;-68
2023/05/18 05:33:54;;;;;;;6.45;2.25;;;8.40;99.90;;;;;;6244731;22;20034;-68
2023/05/18 05:36:20;;;;;;;5.65;2.25;;;8.50;99.90;;;;;;6271816;22;20020;-68
2023/05/18 05:38:46;;;;;;;7.53;2.40;;;8.40;99.90;;;;;;6271833;22;20019;-68
2023/05/18 05:41:12;;;;;;;2.67;2.03;;;8.50;99.90;;;;;;6271991;22;20027;-68
2023/05/18 05:43:37;;;;;;;4.75;2.22;;;8.50;99.90;;;;;;6271940;22;20377;-67
2023/05/18 05:46:03;;;;;;;5.75;2.10;;;8.50;99.90;;;;;;6272156;22;20011;-68
2023/05/18 05:48:29;;;;;;;6.25;2.50;;;8.50;99.90;;;;;;6244510;22;20019;-68
2023/05/18 05:50:55;;;;;;;5.20;2.42;;;8.60;99.90;;;;;;6244399;22;20023;-68
2023/05/18 05:53:22;;;;;;;7.25;2.45;;;8.60;99.90;;;;;;6244779;22;20015;-68
2023/05/18 05:55:48;;;;;;;11.25;2.78;;;8.60;99.90;;;;;;6271875;22;20019;-67
2023/05/18 05:58:13;;;;;;;4.32;2.10;;;8.70;99.90;;;;;;6271610;22;20019;-68
2023/05/18 06:00:39;;;;;;;8.70;2.20;;;8.80;99.90;;;;;;6271561;22;20069;-68
2023/05/18 06:03:05;;;;;;;4.28;1.92;;;8.80;99.90;;;;;;6274645;22;20015;-68
2023/05/18 06:05:30;;;;;;;4.53;1.80;;;9.00;99.90;;;;;;6248346;22;20047;-67
2023/05/18 06:07:56;;;;;;;3.38;1.88;;;9.00;99.90;;;;;;6275713;22;20015;-68
2023/05/18 06:10:22;;;;;;;6.85;2.42;;;9.00;99.90;;;;;;6275871;22;20053;-67
2023/05/18 06:12:48;;;;;;;5.57;1.80;;;9.10;99.90;;;;;;6275770;22;20459;-68
2023/05/18 06:15:14;;;;;;;3.88;1.88;;;9.20;99.90;;;;;;6275590;22;20047;-68
2023/05/18 06:17:40;;;;;;;3.10;1.60;;;9.20;99.90;;;;;;6274925;22;20015;-68
2023/05/18 06:20:06;;;;;;;6.80;1.90;;;9.20;99.90;;;;;;6273913;22;20078;-69
2023/05/18 06:22:32;;;;;;;6.97;2.42;;;9.30;99.90;;;;;;6248644;22;20026;-68
2023/05/18 06:24:58;;;;;;;4.85;2.28;;;9.30;99.90;;;;;;6247411;22;20090;-68
2023/05/18 06:27:23;;;;;;;4.00;2.15;;;9.20;99.90;;;;;;6275426;22;20015;-69
2023/05/18 06:29:49;;;;;;;2.63;1.60;;;9.20;99.90;;;;;;6275037;22;20073;-69
2023/05/18 06:32:15;;;;;;;7.50;2.38;;;9.20;99.90;;;;;;6222565;22;20030;-68
2023/05/18 06:34:44;;;;;;;8.68;2.67;;;9.20;99.90;;;;;;6275969;22;20500;-69
2023/05/18 06:37:10;;;;;;;4.63;2.25;;;9.20;99.90;;;;;;6275677;22;20015;-68
2023/05/18 06:39:36;;;;;;;5.30;1.90;;;9.20;99.90;;;;;;6275711;22;20023;-68
2023/05/18 06:42:02;;;;;;;11.80;2.65;;;9.30;99.90;;;;;;6247630;22;20393;-69
2023/05/18 06:44:28;;;;;;;5.68;2.50;;;9.20;99.90;;;;;;6271939;22;20280;-68
2023/05/18 06:46:54;;;;;;;6.15;2.05;;;9.30;99.90;;;;;;6243946;22;20034;-69
2023/05/18 06:49:19;;;;;;;4.95;1.85;;;9.20;99.90;;;;;;6271613;22;20016;-68
2023/05/18 06:51:45;;;;;;;5.45;2.15;;;9.30;99.90;;;;;;6218870;23;20093;-69
2023/05/18 06:54:11;;;;;;;3.42;2.05;;;9.20;99.90;;;;;;6210651;23;20020;-69
2023/05/18 06:56:37;;;;;;;5.30;2.38;;;9.20;99.90;;;;;;6210559;23;20020;-69
2023/05/18 06:59:03;;;;;;;8.32;1.98;;;9.30;99.90;;;;;;6210770;23;20043;-68
2023/05/18 07:01:28;;;;;;;7.47;2.05;;;9.30;99.90;;;;;;6208693;23;20059;-69
2023/05/18 07:03:54;;;;;;;6.35;2.03;;;9.30;99.90;;;;;;6234312;23;20026;-68
2023/05/18 07:06:20;;;;;;;5.93;2.50;;;9.30;99.90;;;;;;6210712;23;20597;-68
2023/05/18 07:08:46;;;;;;;5.65;1.98;;;9.30;99.90;;;;;;6209442;22;20135;-67
2023/05/18 07:11:12;;;;;;;7.18;2.20;;;9.20;99.90;;;;;;6158276;23;20127;-67
2023/05/18 07:13:37;;;;;;;8.98;3.30;;;9.30;99.90;;;;;;6183376;23;20055;-67
2023/05/18 07:16:03;;;;;;;3.00;2.25;;;9.40;99.90;;;;;;6183986;23;20024;-66
2023/05/18 07:18:29;;;;;;;8.75;2.30;;;9.40;99.90;;;;;;6158799;23;20021;-66
2023/05/18 07:20:55;;;;;;;5.47;1.85;;;9.50;99.90;;;;;;6210543;23;20096;-66
2023/05/18 07:23:21;;;;;;;6.18;2.00;;;9.30;99.90;;;;;;6210307;23;20024;-67
2023/05/18 07:25:47;;;;;;;4.80;2.00;;;9.30;99.90;;;;;;6210690;23;20020;-67
2023/05/18 07:28:13;;;;;;;6.35;2.42;;;9.30;99.90;;;;;;6210878;23;20336;-66
2023/05/18 07:30:39;;;;;;;3.53;2.25;;;9.30;99.90;;;;;;6210825;23;20021;-66
2023/05/18 07:33:05;;;;;;;3.35;1.77;;;9.40;99.90;;;;;;6210987;23;20071;-67
2023/05/18 07:35:31;;;;;;;2.97;1.77;;;9.40;99.90;;;;;;6185171;23;20027;-67
2023/05/18 07:37:57;;;;;;;7.07;1.83;;;9.50;99.90;;;;;;6186618;23;20432;-67
2023/05/18 07:40:22;;;;;;;7.78;2.00;;;9.40;99.90;;;;;;6212380;23;20025;-67
2023/05/18 07:42:48;;;;;;;6.93;2.22;;;9.50;99.90;;;;;;6185719;23;20032;-67
2023/05/18 07:45:13;;;;;;;4.85;1.67;;;9.50;99.90;;;;;;6160852;23;20079;-67
2023/05/18 07:47:39;;;;;;;7.88;2.05;;;9.50;99.90;;;;;;6185634;23;20099;-67
2023/05/18 07:50:06;;;;;;;4.63;1.90;;;9.60;99.90;;;;;;6185546;23;20325;-67
2023/05/18 07:52:31;;;;;;;7.05;2.90;;;9.70;99.90;;;;;;6212494;23;20021;-67
2023/05/18 07:54:57;;;;;;;5.13;2.10;;;9.70;99.90;;;;;;6185435;23;20406;-67
2023/05/18 07:57:23;;;;;;;6.85;2.08;;;9.90;99.90;;;;;;6185867;23;20021;-67
2023/05/18 07:59:50;;;;;;;4.20;2.75;;;10.00;99.90;;;;;;6185072;23;20127;-67
2023/05/18 08:02:16;;;;;;;3.78;1.90;;;10.10;99.90;;;;;;6185607;23;20371;-67
2023/05/18 08:04:42;;;;;;;5.95;2.13;;;10.00;99.90;;;;;;6212851;23;20024;-67
2023/05/18 08:07:09;;;;;;;3.70;1.95;;;10.10;99.90;;;;;;6212331;23;20345;-67
2023/05/18 08:09:35;;;;;;;5.03;2.30;;;10.20;99.90;;;;;;6185178;23;20051;-67
2023/05/18 08:12:00;;;;;;;6.75;2.60;;;10.20;99.90;;;;;;6212613;23;20016;-67
2023/05/18 08:14:26;;;;;;;4.68;2.10;;;10.20;99.90;;;;;;6185273;23;20030;-69
2023/05/18 08:16:52;;;;;;;8.13;3.53;;;10.30;99.90;;;;;;6212383;23;20021;-68
2023/05/18 08:19:18;;;;;;;9.85;2.30;;;10.30;99.90;;;;;;6184993;23;20387;-68
2023/05/18 08:21:45;;;;;;;3.97;2.03;;;10.30;99.90;;;;;;6184864;23;20013;-69
2023/05/18 08:24:10;;;;;;;7.70;2.20;;;10.50;99.90;;;;;;6211790;23;20027;-68
2023/05/18 08:26:36;;;;;;;6.22;2.00;;;10.50;99.90;;;;;;6185089;23;20032;-68
2023/05/18 08:29:08;;;;;;;6.75;2.35;;;10.50;99.90;;;;;;6211760;23;20356;-66
2023/05/18 08:31:38;;;;;;;8.87;2.00;;;10.70;99.90;;;;;;6185041;23;20074;-66
2023/05/18 08:34:04;;;;;;;6.07;2.05;;;10.60;99.90;;;;;;6184641;23;20092;-67
2023/05/18 08:36:34;;;;;;;5.72;1.80;;;10.50;99.90;;;;;;6211560;23;20448;-67
2023/05/18 08:39:01;;;;;;;4.65;1.83;;;10.60;99.90;;;;;;6184277;23;20051;-67
2023/05/18 08:41:58;;;;;;;5.10;2.20;;;10.50;99.90;;;;;;6183982;23;20024;-67
2023/05/18 08:44:45;;;;;;;4.30;1.80;;;10.60;99.90;;;;;;6184667;23;20021;-68
2023/05/18 08:47:13;;;;;;;6.38;1.67;;;10.60;99.90;;;;;;6184054;23;20527;-69
2023/05/18 08:49:41;;;;;;;5.85;2.45;;;10.70;99.90;;;;;;6182819;23;20029;-71
2023/05/18 08:52:08;;;;;;;6.28;2.03;;;10.70;99.90;;;;;;6178852;23;20020;-68
2023/05/18 08:54:36;;;;;;;5.82;2.40;;;10.80;99.90;;;;;;6184706;23;20020;-68
2023/05/18 08:57:06;;;;;;;11.48;3.60;;;10.90;99.90;;;;;;6184869;23;20020;-68
2023/05/18 08:59:35;;;;;;;7.60;2.53;;;10.90;99.90;;;;;;6184467;23;20163;-68
2023/05/18 09:02:01;;;;;;;5.18;2.20;;;10.90;99.90;;;;;;6209977;23;20056;-67
2023/05/18 09:04:27;;;;;;;4.05;2.35;;;10.90;99.90;;;;;;6182581;23;20028;-68
2023/05/18 09:06:55;;;;;;;6.45;2.50;;;10.90;99.90;;;;;;6180205;23;20391;-68
2023/05/18 09:09:22;;;;;;;5.43;2.10;;;11.10;99.90;;;;;;6208054;23;20031;-67
2023/05/18 09:11:49;;;;;;;5.18;2.13;;;11.30;99.90;;;;;;6210799;23;20339;-66
2023/05/18 09:14:15;;;;;;;7.43;1.73;;;11.40;99.90;;;;;;6209782;23;20052;-66
2023/05/18 09:16:41;;;;;;;5.65;2.05;;;11.50;99.90;;;;;;6183428;23;20143;-66
2023/05/18 09:19:06;;;;;;;8.13;3.55;;;11.60;99.90;;;;;;6208683;23;20016;-66
2023/05/18 09:21:32;;;;;;;5.45;2.00;;;11.50;99.90;;;;;;6209960;23;20063;-67
2023/05/18 09:23:59;;;;;;;5.18;1.95;;;11.70;99.90;;;;;;6184024;23;20056;-67
2023/05/18 09:26:26;;;;;;;5.05;2.15;;;11.60;99.90;;;;;;6184201;23;20017;-66
2023/05/18 09:28:53;;;;;;;5.57;2.15;;;11.70;99.90;;;;;;6209429;23;20468;-67
2023/05/18 09:31:20;;;;;;;6.32;2.40;;;11.80;99.90;;;;;;6209481;23;20147;-66
2023/05/18 09:33:47;;;;;;;4.90;2.10;;;11.90;99.90;;;;;;6183728;23;20456;-67
2023/05/18 09:36:16;;;;;;;7.22;2.30;;;12.10;99.90;;;;;;6210618;23;20020;-66
2023/05/18 09:38:45;;;;;;;8.15;2.78;;;12.20;99.90;;;;;;6210055;23;20020;-67
2023/05/18 09:41:13;;;;;;;5.38;1.73;;;12.20;99.90;;;;;;6210956;23;20016;-67
2023/05/18 09:43:40;;;;;;;3.42;1.83;;;12.00;99.90;;;;;;6184355;23;20372;-67
2023/05/18 09:46:07;;;;;;;14.50;3.83;;;12.10;99.90;;;;;;6211231;23;20024;-66
2023/05/18 09:48:38;;;;;;;4.75;1.92;;;12.10;99.90;;;;;;6210249;23;20502;-66
2023/05/18 09:51:05;;;;;;;5.90;2.08;;;12.10;99.90;;;;;;6209708;23;20119;-66
2023/05/18 09:53:34;;;;;;;11.05;2.83;;;12.30;99.90;;;;;;6210318;23;20024;-66
2023/05/18 09:56:05;;;;;;;5.47;1.83;;;12.40;99.90;;;;;;6207926;23;20527;-72
2023/05/18 09:58:33;;;;;;;8.95;2.55;;;12.50;99.90;;;;;;6182095;23;20747;-67
2023/05/18 10:01:01;;;;;;;10.25;3.08;;;12.60;99.90;;;;;;6182300;23;20027;-66
2023/05/18 10:03:37;;;;;;;4.15;1.85;;;12.60;99.90;;;;;;6182822;23;20028;-66
2023/05/18 10:06:05;;;;;;;4.53;1.83;;;12.60;99.90;;;;;;6182641;23;20021;-68
2023/05/18 10:12:11;;;;;;;6.90;2.03;;;12.70;99.90;;;;;;6207361;23;20094;-68
2023/05/18 10:14:55;;;;;;;8.57;2.15;;;12.60;99.90;;;;;;6148905;23;20072;-68
2023/05/18 10:17:24;;;;;;;5.50;2.13;;;12.70;99.90;;;;;;6182869;23;20105;-68
2023/05/18 10:19:54;;;;;;;4.10;2.05;;;12.60;99.90;;;;;;6207512;23;20066;-68
2023/05/18 10:22:22;;;;;;;3.30;2.00;;;12.40;99.90;;;;;;6182704;23;20549;-68
2023/05/18 10:24:53;;;;;;;3.45;2.17;;;12.70;99.90;;;;;;6210692;23;20070;-68
2023/05/18 10:27:27;;;;;;;3.08;1.67;;;12.60;99.90;;;;;;6208667;23;20052;-67
2023/05/18 10:29:56;;;;;;;3.88;1.92;;;12.80;99.90;;;;;;6211230;23;20020;-67
2023/05/18 10:32:24;;;;;;;7.13;2.40;;;12.70;99.90;;;;;;6210920;23;20013;-67
2023/05/18 10:34:55;;;;;;;4.55;1.90;;;12.80;99.90;;;;;;6210319;23;20051;-66
2023/05/18 10:37:29;;;;;;;7.97;2.03;;;12.80;99.90;;;;;;6211162;23;20075;-67
2023/05/18 10:39:56;;;;;;;9.82;2.40;;;12.80;99.90;;;;;;6211262;23;20021;-67
2023/05/18 10:42:24;;;;;;;7.80;2.10;;;12.90;99.90;;;;;;6211166;23;20031;-67
2023/05/18 10:44:52;;;;;;;5.05;2.20;;;13.10;99.90;;;;;;6211307;23;20091;-67
2023/05/18 11:14:56;;;;;;;4.28;1.60;;;13.30;99.90;;;;;;6249124;22;20050;-69
2023/05/18 11:17:24;;;;;;;5.95;2.10;;;13.30;99.90;;;;;;6242497;23;20059;-68
2023/05/18 11:20:12;;;;;;;3.88;2.08;;;13.40;99.90;;;;;;6244622;22;20024;-68
2023/05/18 11:22:50;;;;;;;7.72;2.30;;;13.30;99.90;;;;;;6244397;22;20178;-68
2023/05/18 11:25:31;;;;;;;6.30;1.80;;;13.50;99.90;;;;;;6244444;22;20052;-68
2023/05/18 11:28:03;;;;;;;5.47;2.00;;;13.50;99.90;;;;;;6244311;23;20098;-68
2023/05/18 11:30:43;;;;;;;8.40;2.42;;;13.60;99.90;;;;;;6243870;22;20024;-68
2023/05/18 11:33:16;;;;;;;8.10;2.35;;;13.70;99.90;;;;;;6244184;22;20016;-68
2023/05/18 11:35:54;;;;;;;6.30;2.10;;;13.70;99.90;;;;;;6243415;22;20030;-68
2023/05/18 11:38:19;;;;;;;8.82;2.03;;;13.80;99.90;;;;;;6244470;23;20379;-68
2023/05/18 11:40:47;;;;;;;6.13;2.10;;;13.80;99.90;;;;;;6242303;23;20024;-68
2023/05/18 11:43:23;;;;;;;9.98;2.55;;;13.90;99.90;;;;;;6244349;22;20474;-68
2023/05/18 11:45:56;;;;;;;4.75;2.15;;;13.80;99.90;;;;;;6243988;22;20073;-68
2023/05/18 11:48:24;;;;;;;4.47;2.50;;;13.90;99.90;;;;;;6242543;23;20016;-69
2023/05/18 11:50:53;;;;;;;5.93;2.25;;;14.10;99.90;;;;;;6244546;22;20016;-68
2023/05/18 11:53:23;;;;;;;6.85;2.08;;;13.90;99.90;;;;;;6217287;23;20020;-69
2023/05/18 11:55:55;;;;;;;6.07;2.60;;;14.20;99.90;;;;;;6244529;22;20027;-68
2023/05/18 11:58:24;;;;;;;5.33;2.70;;;14.20;99.90;;;;;;6244433;22;20016;-68
2023/05/18 12:00:50;;;;;;;10.65;2.60;;;14.20;99.90;;;;;;6242067;23;20301;-67
2023/05/18 12:03:24;;;;;;;6.25;1.90;;;14.30;99.90;;;;;;6242654;23;20730;-68
2023/05/18 12:05:50;;;;;;;6.95;2.38;;;14.50;99.90;;;;;;6244875;22;20020;-68
2023/05/18 12:08:18;;;;;;;3.33;2.05;;;14.50;99.90;;;;;;6244851;22;20404;-68
2023/05/18 12:10:48;;;;;;;10.80;2.83;;;14.50;99.90;;;;;;6218347;23;20031;-70
2023/05/18 12:13:16;;;;;;;4.10;2.60;;;14.50;99.90;;;;;;6244000;23;20343;-75
2023/05/18 12:15:43;;;;;;;8.15;2.17;;;14.50;99.90;;;;;;6246377;22;20051;-68
2023/05/18 12:18:09;;;;;;;6.57;3.28;;;14.40;99.90;;;;;;6244783;23;20016;-68
2023/05/18 12:20:39;;;;;;;9.43;2.22;;;14.40;99.90;;;;;;6218469;23;20024;-68
2023/05/18 12:23:04;;;;;;;6.57;2.28;;;14.40;99.90;;;;;;6242068;23;20059;-68
2023/05/18 12:25:30;;;;;;;6.53;3.00;;;14.40;99.90;;;;;;6243007;23;20020;-69
2023/05/18 12:27:56;;;;;;;9.35;2.53;;;14.40;99.90;;;;;;6242920;23;20020;-67
2023/05/18 12:30:37;;;;;;;3.85;1.83;;;14.50;99.90;;;;;;6242179;22;20387;-67
2023/05/18 12:33:03;;;;;;;5.75;2.10;;;14.50;99.90;;;;;;6243251;22;20073;-67
2023/05/18 12:35:29;;;;;;;7.15;2.92;;;14.50;99.90;;;;;;6266673;22;20445;-68
2023/05/18 12:37:58;;;;;;;5.40;2.20;;;14.70;99.90;;;;;;6242589;22;20016;-67
2023/05/18 12:40:25;;;;;;;4.22;2.22;;;14.50;99.90;;;;;;6240483;23;20074;-66
2023/05/18 12:42:55;;;;;;;8.50;2.70;;;14.50;99.90;;;;;;6242457;22;20044;-66
2023/05/18 12:45:30;;;;;;;4.55;1.80;;;14.50;99.90;;;;;;6242527;22;20402;-67
2023/05/18 12:48:02;;;;;;;4.63;2.22;;;14.60;99.90;;;;;;6241018;23;20023;-67
2023/05/18 12:50:28;;;;;;;8.77;2.42;;;14.60;99.90;;;;;;6242582;22;20020;-67
2023/05/18 12:52:55;;;;;;;10.13;2.40;;;14.60;99.90;;;;;;6243048;22;20016;-67
2023/05/18 12:55:21;;;;;;;4.05;2.13;;;14.60;99.90;;;;;;6240883;23;20016;-67
2023/05/18 12:58:17;;;;;;;6.82;2.13;;;14.70;99.90;;;;;;6242381;22;20062;-66
2023/05/18 13:00:44;;;;;;;8.27;2.83;;;14.80;99.90;;;;;;6239707;23;20024;-67
2023/05/18 13:03:18;;;;;;;4.57;2.42;;;14.70;99.90;;;;;;6215309;23;20028;-67
2023/05/18 13:06:00;;;;;;;6.30;2.20;;;14.70;99.90;;;;;;6239895;23;20551;-67
2023/05/18 13:08:31;;;;;;;3.40;2.25;;;14.80;99.90;;;;;;6240130;23;20024;-66
2023/05/18 13:11:04;;;;;;;4.18;1.80;;;14.80;99.90;;;;;;6240183;23;20086;-67
2023/05/18 13:13:30;;;;;;;3.85;2.00;;;14.90;99.90;;;;;;6240010;23;20232;-67
2023/05/18 13:15:59;;;;;;;2.33;1.55;;;15.00;99.90;;;;;;6241733;22;20582;-67
2023/05/18 13:18:26;;;;;;;3.95;2.30;;;15.00;99.90;;;;;;6240314;23;20435;-67
2023/05/18 13:20:55;;;;;;;5.45;1.80;;;15.00;99.90;;;;;;6240315;23;20024;-67
2023/05/18 13:23:25;;;;;;;4.85;2.17;;;15.00;99.90;;;;;;6242062;22;20031;-67
2023/05/18 13:25:51;;;;;;;3.33;1.80;;;15.10;99.90;;;;;;6214754;23;20028;-67
2023/05/18 13:28:19;;;;;;;3.65;1.80;;;15.20;99.90;;;;;;6241446;22;20024;-67